Time;durP1;ratioP1;P1;durP2;ratioP2;P2;SDS_P1;SDS_P2;PMS_P1;PMS_P2;Temp;Humidity;BMP_temperature;BMP_pressure;BME280_temperature;BME280_humidity;BME280_pressure;Samples;Min_cycle;Max_cycle;Signal;HPM_P1;HPM_P2
2023/12/24 00:05:20;;;;;;;21.8;13;;;;;;;1.03;90.44;;;;;
2023/12/24 00:16:20;;;;;;;21.8;13;;;;;;;1.03;90.27;;;;;
2023/12/24 00:27:20;;;;;;;21.8;13;;;;;;;1.04;89.9;;;;;
2023/12/24 00:37:20;;;;;;;20.2;10;;;;;;;0.96;88.97;;;;;
2023/12/24 00:48:20;;;;;;;20.2;10;;;;;;;0.96;88.82;;;;;
2023/12/24 00:59:21;;;;;;;20.2;10;;;;;;;0.89;89.81;;;;;
2023/12/24 01:10:20;;;;;;;12.3;6.1;;;;;;;0.94;90.44;;;;;
2023/12/24 01:20:21;;;;;;;12.3;6.1;;;;;;;0.86;90.98;;;;;
2023/12/24 01:31:20;;;;;;;12.3;6.1;;;;;;;0.89;91.38;;;;;
2023/12/24 01:41:20;;;;;;;13.1;6.8;;;;;;;0.93;91.35;;;;;
2023/12/24 01:52:20;;;;;;;13.1;6.8;;;;;;;0.88;93.81;;;;;
2023/12/24 02:03:20;;;;;;;13.3;5.5;;;;;;;0.9;90.33;;;;;
2023/12/24 02:14:20;;;;;;;13.3;5.5;;;;;;;0.68;90.28;;;;;
2023/12/24 02:24:20;;;;;;;13.3;5.5;;;;;;;0.69;90.49;;;;;
2023/12/24 02:35:20;;;;;;;6.1;3;;;;;;;0.6;89.24;;;;;
2023/12/24 02:46:20;;;;;;;6.1;3;;;;;;;0.66;88.01;;;;;
2023/12/24 02:57:20;;;;;;;6.1;3;;;;;;;0.68;88.69;;;;;
2023/12/24 03:07:20;;;;;;;5.9;2.3;;;;;;;0.69;89.64;;;;;
2023/12/24 03:18:20;;;;;;;5.9;2.3;;;;;;;0.61;90.27;;;;;
2023/12/24 03:28:20;;;;;;;5.9;2.3;;;;;;;0.47;90.64;;;;;
2023/12/24 03:39:20;;;;;;;6.1;2.4;;;;;;;0.57;90.55;;;;;
2023/12/24 03:50:20;;;;;;;6.1;2.4;;;;;;;0.57;90.52;;;;;
2023/12/24 04:00:20;;;;;;;6.1;2.4;;;;;;;0.6;89.83;;;;;
2023/12/24 04:11:20;;;;;;;5.4;3.1;;;;;;;0.55;89.92;;;;;
2023/12/24 04:22:20;;;;;;;5.4;3.1;;;;;;;0.44;90.1;;;;;
2023/12/24 04:33:20;;;;;;;5.9;2.7;;;;;;;0.53;90.52;;;;;
2023/12/24 04:44:20;;;;;;;5.9;2.7;;;;;;;0.51;90.55;;;;;
2023/12/24 04:55:20;;;;;;;5.9;2.7;;;;;;;0.52;90.72;;;;;
2023/12/24 05:05:21;;;;;;;4.3;1.7;;;;;;;0.53;90.68;;;;;
2023/12/24 05:16:20;;;;;;;4.3;1.7;;;;;;;0.53;90.55;;;;;
2023/12/24 05:27:20;;;;;;;4.3;1.7;;;;;;;0.57;90.57;;;;;
2023/12/24 05:37:20;;;;;;;5.4;2.5;;;;;;;0.53;90.37;;;;;
2023/12/24 05:47:20;;;;;;;5.4;2.5;;;;;;;0.63;90.6;;;;;
2023/12/24 05:58:20;;;;;;;5.4;2.5;;;;;;;0.55;90.89;;;;;
2023/12/24 06:09:20;;;;;;;4;2.5;;;;;;;0.49;90.56;;;;;
2023/12/24 06:19:20;;;;;;;4;2.5;;;;;;;0.52;90.87;;;;;
2023/12/24 06:29:20;;;;;;;4;2.5;;;;;;;0.64;91.14;;;;;
2023/12/24 06:40:20;;;;;;;3.9;2.2;;;;;;;0.64;91.03;;;;;
2023/12/24 06:51:20;;;;;;;3.9;2.2;;;;;;;0.72;91.21;;;;;
2023/12/24 07:02:20;;;;;;;6.2;3;;;;;;;0.72;90.56;;;;;
2023/12/24 07:12:21;;;;;;;6.2;3;;;;;;;0.96;91.1;;;;;
2023/12/24 07:23:20;;;;;;;6.2;3;;;;;;;0.97;90.07;;;;;
2023/12/24 07:33:20;;;;;;;7;4.2;;;;;;;1.13;90.17;;;;;
2023/12/24 07:43:20;;;;;;;7;4.2;;;;;;;1.33;90.11;;;;;
2023/12/24 07:53:20;;;;;;;7;4.2;;;;;;;1.49;89.79;;;;;
2023/12/24 08:04:20;;;;;;;13.3;5.2;;;;;;;1.62;89.1;;;;;
2023/12/24 08:14:20;;;;;;;13.3;5.2;;;;;;;1.6;88.25;;;;;
2023/12/24 08:25:20;;;;;;;13.3;5.2;;;;;;;2.08;88.86;;;;;
2023/12/24 08:35:20;;;;;;;12.8;5.1;;;;;;;1.97;87.44;;;;;
2023/12/24 08:46:20;;;;;;;12.8;5.1;;;;;;;1.99;86.63;;;;;
2023/12/24 08:57:20;;;;;;;12.8;5.1;;;;;;;2.04;87.61;;;;;
2023/12/24 09:08:20;;;;;;;12.3;5.5;;;;;;;2.41;88.39;;;;;
2023/12/24 09:18:20;;;;;;;12.3;5.5;;;;;;;2.57;86.94;;;;;
2023/12/24 09:29:20;;;;;;;12.3;5.5;;;;;;;2.4;86.42;;;;;
2023/12/24 09:40:20;;;;;;;15.3;7;;;;;;;2.77;87.43;;;;;
2023/12/24 09:50:20;;;;;;;15.3;7;;;;;;;3.09;87.71;;;;;
2023/12/24 10:01:20;;;;;;;13.3;7;;;;;;;3.12;87.16;;;;;
2023/12/24 10:11:21;;;;;;;13.3;7;;;;;;;3.13;86.93;;;;;
2023/12/24 10:22:20;;;;;;;13.3;7;;;;;;;3.44;86.82;;;;;
2023/12/24 10:32:20;;;;;;;26.4;15.1;;;;;;;3.57;85.09;;;;;
2023/12/24 10:43:20;;;;;;;26.4;15.1;;;;;;;3.81;86.36;;;;;
2023/12/24 10:53:20;;;;;;;26.4;15.1;;;;;;;4.07;86.86;;;;;
2023/12/24 11:04:20;;;;;;;40.1;22.2;;;;;;;4.1;85.37;;;;;
2023/12/24 11:14:20;;;;;;;40.1;22.2;;;;;;;4.3;85.85;;;;;
2023/12/24 11:25:20;;;;;;;40.1;22.2;;;;;;;4.49;85.83;;;;;
2023/12/24 11:35:20;;;;;;;42;23.9;;;;;;;4.43;85.75;;;;;
2023/12/24 11:46:20;;;;;;;42;23.9;;;;;;;4.36;85.67;;;;;
2023/12/24 11:56:20;;;;;;;42;23.9;;;;;;;4.35;85.06;;;;;
2023/12/24 12:07:20;;;;;;;45.4;25.3;;;;;;;4.46;86.03;;;;;
2023/12/24 12:17:20;;;;;;;45.4;25.3;;;;;;;4.54;86.57;;;;;
2023/12/24 12:27:20;;;;;;;45.4;25.3;;;;;;;4.52;86.41;;;;;
2023/12/24 12:38:20;;;;;;;73;41.3;;;;;;;4.78;88.23;;;;;
2023/12/24 12:49:20;;;;;;;73;41.3;;;;;;;4.94;88.35;;;;;
2023/12/24 12:59:21;;;;;;;73;41.3;;;;;;;5.07;89.57;;;;;
2023/12/24 13:09:21;;;;;;;47.1;30.1;;;;;;;5.22;90.14;;;;;
2023/12/24 13:19:22;;;;;;;47.1;30.1;;;;;;;5.31;90.41;;;;;
2023/12/24 13:29:21;;;;;;;47.1;30.1;;;;;;;5.32;90.15;;;;;
2023/12/24 13:40:20;;;;;;;33.6;19.1;;;;;;;5.63;90.68;;;;;
2023/12/24 13:50:20;;;;;;;33.6;19.1;;;;;;;5.81;90.74;;;;;
2023/12/24 14:00:20;;;;;;;33.6;19.1;;;;;;;5.91;90.02;;;;;
2023/12/24 14:11:20;;;;;;;14.1;7.9;;;;;;;5.98;89.67;;;;;
2023/12/24 14:21:20;;;;;;;14.1;7.9;;;;;;;5.96;88.98;;;;;
2023/12/24 14:32:20;;;;;;;11.4;5.9;;;;;;;6.03;88.76;;;;;
2023/12/24 14:42:21;;;;;;;11.4;5.9;;;;;;;5.99;89.44;;;;;
2023/12/24 14:52:20;;;;;;;11.4;5.9;;;;;;;5.85;89.16;;;;;
2023/12/24 15:02:21;;;;;;;13.4;7.4;;;;;;;5.77;88.47;;;;;
2023/12/24 15:12:20;;;;;;;13.4;7.4;;;;;;;5.85;89.52;;;;;
2023/12/24 15:23:21;;;;;;;13.4;7.4;;;;;;;5.77;89.05;;;;;
2023/12/24 15:33:20;;;;;;;13.9;9;;;;;;;5.78;89;;;;;
2023/12/24 15:44:20;;;;;;;13.9;9;;;;;;;5.65;88.4;;;;;
2023/12/24 15:55:20;;;;;;;13.9;9;;;;;;;5.72;88.28;;;;;
2023/12/24 16:05:21;;;;;;;18.4;9.3;;;;;;;5.75;88.24;;;;;
2023/12/24 16:16:21;;;;;;;18.4;9.3;;;;;;;5.76;88.14;;;;;
2023/12/24 16:27:20;;;;;;;18.4;9.3;;;;;;;5.81;88.78;;;;;
2023/12/24 16:37:20;;;;;;;12.9;7.2;;;;;;;5.79;88.38;;;;;
2023/12/24 16:47:20;;;;;;;12.9;7.2;;;;;;;5.82;88.33;;;;;
2023/12/24 16:58:20;;;;;;;12.9;7.2;;;;;;;5.79;88.08;;;;;
2023/12/24 17:08:20;;;;;;;11.2;5.6;;;;;;;5.85;87.6;;;;;
2023/12/24 17:18:20;;;;;;;11.2;5.6;;;;;;;5.97;88.26;;;;;
2023/12/24 17:28:21;;;;;;;11.2;5.6;;;;;;;5.97;87.31;;;;;
2023/12/24 17:39:21;;;;;;;11.9;6;;;;;;;6.01;87.44;;;;;
2023/12/24 17:49:20;;;;;;;11.9;6;;;;;;;6.03;87.24;;;;;
2023/12/24 17:59:21;;;;;;;11.9;6;;;;;;;6.14;87.82;;;;;
2023/12/24 18:10:21;;;;;;;10.1;5.7;;;;;;;6.25;87.31;;;;;
2023/12/24 18:20:21;;;;;;;10.1;5.7;;;;;;;6.28;87.72;;;;;
2023/12/24 18:30:21;;;;;;;9.8;5.9;;;;;;;6.42;87.27;;;;;
2023/12/24 18:41:21;;;;;;;9.8;5.9;;;;;;;6.51;87.35;;;;;
2023/12/24 18:51:21;;;;;;;9.8;5.9;;;;;;;6.62;86.43;;;;;
2023/12/24 19:02:20;;;;;;;10.2;5.8;;;;;;;6.68;86.39;;;;;
2023/12/24 19:13:21;;;;;;;10.2;5.8;;;;;;;6.79;86.79;;;;;
2023/12/24 19:24:24;;;;;;;10.2;5.8;;;;;;;6.87;86.61;;;;;
2023/12/24 19:34:21;;;;;;;8.3;5.3;;;;;;;6.93;85.79;;;;;
2023/12/24 19:45:20;;;;;;;8.3;5.3;;;;;;;7.04;86.1;;;;;
2023/12/24 19:55:21;;;;;;;8.3;5.3;;;;;;;7.1;85.66;;;;;
2023/12/24 20:06:21;;;;;;;7.5;4.1;;;;;;;7.2;84.82;;;;;
2023/12/24 20:17:20;;;;;;;7.5;4.1;;;;;;;7.3;84.84;;;;;
2023/12/24 20:27:21;;;;;;;7.5;4.1;;;;;;;7.41;86.59;;;;;
2023/12/24 20:37:21;;;;;;;8.1;4.7;;;;;;;7.29;87.47;;;;;
2023/12/24 20:47:21;;;;;;;8.1;4.7;;;;;;;7.19;88.33;;;;;
2023/12/24 20:58:21;;;;;;;8.1;4.7;;;;;;;7.18;88.46;;;;;
2023/12/24 21:08:22;;;;;;;6.7;3.4;;;;;;;7.3;88.71;;;;;
2023/12/24 21:18:21;;;;;;;6.7;3.4;;;;;;;7.38;88.66;;;;;
2023/12/24 21:29:21;;;;;;;6.7;3.4;;;;;;;7.41;88.14;;;;;
2023/12/24 21:39:21;;;;;;;7.2;3.7;;;;;;;7.42;87.79;;;;;
2023/12/24 21:50:21;;;;;;;7.2;3.7;;;;;;;7.58;87.24;;;;;
2023/12/24 22:00:21;;;;;;;6.5;3.7;;;;;;;7.72;86.3;;;;;
2023/12/24 22:11:21;;;;;;;6.5;3.7;;;;;;;7.81;87.26;;;;;
2023/12/24 22:21:21;;;;;;;6.5;3.7;;;;;;;7.74;87.34;;;;;
2023/12/24 22:32:21;;;;;;;5.7;2.8;;;;;;;7.75;89.31;;;;;
2023/12/24 22:43:21;;;;;;;5.7;2.8;;;;;;;7.82;90.16;;;;;
2023/12/24 22:53:21;;;;;;;5.7;2.8;;;;;;;7.83;90.37;;;;;
2023/12/24 23:04:21;;;;;;;3.5;2;;;;;;;7.86;90.81;;;;;
2023/12/24 23:15:21;;;;;;;3.5;2;;;;;;;7.94;91.03;;;;;
2023/12/24 23:26:21;;;;;;;3.5;2;;;;;;;8.01;91.11;;;;;
2023/12/24 23:37:21;;;;;;;5.1;2.3;;;;;;;8.12;90.67;;;;;
2023/12/24 23:48:21;;;;;;;5.1;2.3;;;;;;;8.24;90.64;;;;;
2023/12/24 23:58:21;;;;;;;5.1;2.3;;;;;;;8.43;90.38;;;;;
